sensor_id;sensor_type;location;lat;lon;timestamp;pressure;altitude;pressure_sealevel;temperature;humidity
45888;BME280;31595;51.418;7.572;2023-02-11T00:00:21;102063.56;;;8.34;63.44
45888;BME280;31595;51.418;7.572;2023-02-11T00:02:48;102068.94;;;8.41;63.69
45888;BME280;31595;51.418;7.572;2023-02-11T00:05:15;102056.47;;;8.44;63.82
45888;BME280;31595;51.418;7.572;2023-02-11T00:07:43;102053.19;;;8.47;62.77
45888;BME280;31595;51.418;7.572;2023-02-11T00:10:10;102061.44;;;8.42;64.22
45888;BME280;31595;51.418;7.572;2023-02-11T00:12:39;102057.13;;;8.51;64.12
45888;BME280;31595;51.418;7.572;2023-02-11T00:15:08;102049.63;;;8.51;62.90
45888;BME280;31595;51.418;7.572;2023-02-11T00:17:36;102049.03;;;8.49;63.17
45888;BME280;31595;51.418;7.572;2023-02-11T00:20:06;102041.38;;;8.62;63.42
45888;BME280;31595;51.418;7.572;2023-02-11T00:22:33;102044.31;;;8.50;62.25
45888;BME280;31595;51.418;7.572;2023-02-11T00:25:00;102033.41;;;8.43;62.93
45888;BME280;31595;51.418;7.572;2023-02-11T00:27:28;102025.41;;;8.47;62.77
45888;BME280;31595;51.418;7.572;2023-02-11T00:29:57;102022.38;;;8.48;63.02
45888;BME280;31595;51.418;7.572;2023-02-11T00:32:25;102021.72;;;8.41;63.87
45888;BME280;31595;51.418;7.572;2023-02-11T00:34:52;102009.78;;;8.41;62.66
45888;BME280;31595;51.418;7.572;2023-02-11T00:37:20;102015.47;;;8.29;63.24
45888;BME280;31595;51.418;7.572;2023-02-11T00:39:53;102022.13;;;8.28;64.13
45888;BME280;31595;51.418;7.572;2023-02-11T00:42:21;102030.25;;;8.34;63.31
45888;BME280;31595;51.418;7.572;2023-02-11T00:44:48;102022.75;;;8.35;63.24
45888;BME280;31595;51.418;7.572;2023-02-11T00:47:17;102027.28;;;8.41;63.96
45888;BME280;31595;51.418;7.572;2023-02-11T00:49:44;102032.34;;;8.44;63.92
45888;BME280;31595;51.418;7.572;2023-02-11T00:52:11;102032.47;;;8.38;63.46
45888;BME280;31595;51.418;7.572;2023-02-11T00:54:40;102025.41;;;8.47;63.57
45888;BME280;31595;51.418;7.572;2023-02-11T00:57:08;102024.59;;;8.46;63.96
45888;BME280;31595;51.418;7.572;2023-02-11T00:59:35;102035.72;;;8.51;62.69
45888;BME280;31595;51.418;7.572;2023-02-11T01:02:02;102022.16;;;8.55;63.75
45888;BME280;31595;51.418;7.572;2023-02-11T01:04:34;102019.97;;;8.57;63.44
45888;BME280;31595;51.418;7.572;2023-02-11T01:07:01;102018.50;;;8.49;63.73
45888;BME280;31595;51.418;7.572;2023-02-11T01:09:29;102012.91;;;8.44;63.86
45888;BME280;31595;51.418;7.572;2023-02-11T01:11:56;102012.31;;;8.42;63.00
45888;BME280;31595;51.418;7.572;2023-02-11T01:14:23;102010.28;;;8.38;62.85
45888;BME280;31595;51.418;7.572;2023-02-11T01:16:50;102011.78;;;8.45;63.53
45888;BME280;31595;51.418;7.572;2023-02-11T01:19:18;102015.97;;;8.48;63.83
45888;BME280;31595;51.418;7.572;2023-02-11T01:21:46;102019.84;;;8.47;62.58
45888;BME280;31595;51.418;7.572;2023-02-11T01:24:14;102014.09;;;8.53;62.75
45888;BME280;31595;51.418;7.572;2023-02-11T01:26:41;102017.44;;;8.56;63.42
45888;BME280;31595;51.418;7.572;2023-02-11T01:29:11;102016.97;;;8.64;62.16
45888;BME280;31595;51.418;7.572;2023-02-11T01:31:38;102024.25;;;8.70;62.00
45888;BME280;31595;51.418;7.572;2023-02-11T01:34:06;102030.31;;;8.67;62.64
45888;BME280;31595;51.418;7.572;2023-02-11T01:36:33;102021.41;;;8.65;61.60
45888;BME280;31595;51.418;7.572;2023-02-11T01:39:02;102026.97;;;8.65;61.70
45888;BME280;31595;51.418;7.572;2023-02-11T01:41:29;102028.66;;;8.66;61.74
45888;BME280;31595;51.418;7.572;2023-02-11T01:44:22;102032.31;;;8.71;62.49
45888;BME280;31595;51.418;7.572;2023-02-11T01:46:49;102036.19;;;8.70;61.58
45888;BME280;31595;51.418;7.572;2023-02-11T01:49:20;102039.22;;;8.69;61.58
45888;BME280;31595;51.418;7.572;2023-02-11T01:51:51;102023.34;;;8.64;62.63
45888;BME280;31595;51.418;7.572;2023-02-11T01:54:25;102020.81;;;8.63;63.30
45888;BME280;31595;51.418;7.572;2023-02-11T01:57:12;102013.34;;;8.63;62.42
45888;BME280;31595;51.418;7.572;2023-02-11T02:00:07;102020.66;;;8.74;62.18
45888;BME280;31595;51.418;7.572;2023-02-11T02:02:41;102010.88;;;8.67;62.97
45888;BME280;31595;51.418;7.572;2023-02-11T02:05:18;102030.53;;;8.60;62.87
45888;BME280;31595;51.418;7.572;2023-02-11T02:07:53;102004.84;;;8.48;63.61
45888;BME280;31595;51.418;7.572;2023-02-11T02:10:27;102005.66;;;8.43;63.26
45888;BME280;31595;51.418;7.572;2023-02-11T02:12:55;102005.25;;;8.34;63.79
45888;BME280;31595;51.418;7.572;2023-02-11T02:15:28;101997.25;;;8.38;63.80
45888;BME280;31595;51.418;7.572;2023-02-11T02:17:59;101997.50;;;8.37;64.21
45888;BME280;31595;51.418;7.572;2023-02-11T02:20:47;101993.47;;;8.44;65.20
45888;BME280;31595;51.418;7.572;2023-02-11T02:23:28;101985.16;;;8.49;65.09
45888;BME280;31595;51.418;7.572;2023-02-11T02:26:18;101976.84;;;8.49;64.91
45888;BME280;31595;51.418;7.572;2023-02-11T02:32:22;101959.56;;;8.42;64.01
45888;BME280;31595;51.418;7.572;2023-02-11T02:34:57;101973.72;;;8.46;64.76
45888;BME280;31595;51.418;7.572;2023-02-11T02:37:33;101974.06;;;8.49;63.72
45888;BME280;31595;51.418;7.572;2023-02-11T02:40:08;101972.44;;;8.53;63.99
45888;BME280;31595;51.418;7.572;2023-02-11T02:42:39;101966.88;;;8.53;63.96
45888;BME280;31595;51.418;7.572;2023-02-11T02:45:10;101967.34;;;8.45;63.67
45888;BME280;31595;51.418;7.572;2023-02-11T02:47:39;101974.19;;;8.38;64.61
45888;BME280;31595;51.418;7.572;2023-02-11T02:50:07;101963.34;;;8.36;64.33
45888;BME280;31595;51.418;7.572;2023-02-11T02:52:41;101952.75;;;8.33;64.08
45888;BME280;31595;51.418;7.572;2023-02-11T02:55:27;101957.25;;;8.39;65.06
45888;BME280;31595;51.418;7.572;2023-02-11T02:58:34;101958.38;;;8.38;65.10
45888;BME280;31595;51.418;7.572;2023-02-11T03:01:12;101955.25;;;8.29;64.61
45888;BME280;31595;51.418;7.572;2023-02-11T03:03:48;101968.59;;;8.32;64.67
45888;BME280;31595;51.418;7.572;2023-02-11T03:06:26;101959.69;;;8.30;65.21
45888;BME280;31595;51.418;7.572;2023-02-11T03:09:00;101956.28;;;8.23;64.72
45888;BME280;31595;51.418;7.572;2023-02-11T03:11:30;101957.38;;;8.22;65.07
45888;BME280;31595;51.418;7.572;2023-02-11T03:14:00;101951.91;;;8.27;66.03
45888;BME280;31595;51.418;7.572;2023-02-11T03:16:29;101953.22;;;8.25;66.33
45888;BME280;31595;51.418;7.572;2023-02-11T03:19:05;101952.38;;;8.19;65.52
45888;BME280;31595;51.418;7.572;2023-02-11T03:21:36;101967.13;;;8.25;65.06
45888;BME280;31595;51.418;7.572;2023-02-11T03:24:07;101970.44;;;8.22;65.39
45888;BME280;31595;51.418;7.572;2023-02-11T03:26:39;101966.50;;;8.18;66.55
45888;BME280;31595;51.418;7.572;2023-02-11T03:29:15;101967.19;;;8.30;65.62
45888;BME280;31595;51.418;7.572;2023-02-11T03:31:51;101971.03;;;8.29;65.82
45888;BME280;31595;51.418;7.572;2023-02-11T03:34:26;101969.97;;;8.30;65.62
45888;BME280;31595;51.418;7.572;2023-02-11T03:36:59;101966.97;;;8.37;64.76
45888;BME280;31595;51.418;7.572;2023-02-11T03:39:30;101964.13;;;8.31;64.89
45888;BME280;31595;51.418;7.572;2023-02-11T03:42:01;101972.25;;;8.38;64.85
45888;BME280;31595;51.418;7.572;2023-02-11T03:44:31;101965.50;;;8.29;65.47
45888;BME280;31595;51.418;7.572;2023-02-11T03:47:02;101966.66;;;8.33;66.18
45888;BME280;31595;51.418;7.572;2023-02-11T03:49:33;101970.25;;;8.33;65.99
45888;BME280;31595;51.418;7.572;2023-02-11T03:52:02;101959.81;;;8.41;65.57
45888;BME280;31595;51.418;7.572;2023-02-11T03:54:31;101949.72;;;8.34;65.66
45888;BME280;31595;51.418;7.572;2023-02-11T03:57:00;101938.94;;;8.38;65.34
45888;BME280;31595;51.418;7.572;2023-02-11T03:59:28;101947.78;;;8.35;64.97
45888;BME280;31595;51.418;7.572;2023-02-11T04:01:55;101944.00;;;8.41;65.39
45888;BME280;31595;51.418;7.572;2023-02-11T04:04:27;101935.53;;;8.31;65.77
45888;BME280;31595;51.418;7.572;2023-02-11T04:06:55;101940.25;;;8.30;64.88
45888;BME280;31595;51.418;7.572;2023-02-11T04:09:23;101951.41;;;8.36;65.92
45888;BME280;31595;51.418;7.572;2023-02-11T04:11:50;101955.09;;;8.41;65.75
45888;BME280;31595;51.418;7.572;2023-02-11T04:14:18;101962.50;;;8.36;65.01
45888;BME280;31595;51.418;7.572;2023-02-11T04:16:45;101947.34;;;8.43;64.86
45888;BME280;31595;51.418;7.572;2023-02-11T04:19:12;101947.41;;;8.48;65.10
45888;BME280;31595;51.418;7.572;2023-02-11T04:21:39;101943.72;;;8.43;66.22
45888;BME280;31595;51.418;7.572;2023-02-11T04:24:11;101940.69;;;8.44;65.97
45888;BME280;31595;51.418;7.572;2023-02-11T04:26:41;101926.69;;;8.34;66.67
45888;BME280;31595;51.418;7.572;2023-02-11T04:29:08;101936.69;;;8.35;66.45
45888;BME280;31595;51.418;7.572;2023-02-11T04:31:35;101938.41;;;8.14;68.68
45888;BME280;31595;51.418;7.572;2023-02-11T04:34:05;101945.91;;;8.13;68.70
45888;BME280;31595;51.418;7.572;2023-02-11T04:36:33;101959.69;;;8.03;68.94
45888;BME280;31595;51.418;7.572;2023-02-11T04:39:00;101965.81;;;8.05;68.82
45888;BME280;31595;51.418;7.572;2023-02-11T04:41:29;101966.34;;;8.02;70.25
45888;BME280;31595;51.418;7.572;2023-02-11T04:43:56;101972.19;;;8.06;70.73
45888;BME280;31595;51.418;7.572;2023-02-11T04:46:23;101974.47;;;7.87;70.21
45888;BME280;31595;51.418;7.572;2023-02-11T04:48:51;101981.31;;;8.01;70.15
45888;BME280;31595;51.418;7.572;2023-02-11T04:51:18;101983.25;;;8.01;70.77
45888;BME280;31595;51.418;7.572;2023-02-11T04:53:45;101973.22;;;8.00;70.37
45888;BME280;31595;51.418;7.572;2023-02-11T04:56:15;101967.69;;;8.00;70.76
45888;BME280;31595;51.418;7.572;2023-02-11T04:58:44;101961.13;;;7.84;71.40
45888;BME280;31595;51.418;7.572;2023-02-11T05:01:15;101970.53;;;7.83;71.29
45888;BME280;31595;51.418;7.572;2023-02-11T05:03:42;101956.94;;;7.81;72.40
45888;BME280;31595;51.418;7.572;2023-02-11T05:06:10;101966.69;;;7.84;71.97
45888;BME280;31595;51.418;7.572;2023-02-11T05:08:37;101960.56;;;7.82;71.78
45888;BME280;31595;51.418;7.572;2023-02-11T05:11:05;101961.47;;;7.87;71.69
45888;BME280;31595;51.418;7.572;2023-02-11T05:13:36;101953.06;;;7.82;71.79
45888;BME280;31595;51.418;7.572;2023-02-11T05:16:05;101950.53;;;7.81;72.72
45888;BME280;31595;51.418;7.572;2023-02-11T05:18:32;101948.56;;;7.76;72.43
45888;BME280;31595;51.418;7.572;2023-02-11T05:21:04;101960.94;;;7.90;73.58
45888;BME280;31595;51.418;7.572;2023-02-11T05:23:32;101956.78;;;7.93;72.34
45888;BME280;31595;51.418;7.572;2023-02-11T05:26:03;101965.13;;;7.93;72.59
45888;BME280;31595;51.418;7.572;2023-02-11T05:28:31;101950.97;;;7.95;73.61
45888;BME280;31595;51.418;7.572;2023-02-11T05:30:58;101959.44;;;8.05;72.73
45888;BME280;31595;51.418;7.572;2023-02-11T05:33:27;101966.03;;;7.99;72.60
45888;BME280;31595;51.418;7.572;2023-02-11T05:35:58;101965.75;;;8.00;73.56
45888;BME280;31595;51.418;7.572;2023-02-11T05:38:25;101973.81;;;8.02;72.58
45888;BME280;31595;51.418;7.572;2023-02-11T05:40:53;101964.66;;;8.01;72.15
45888;BME280;31595;51.418;7.572;2023-02-11T05:43:20;101957.47;;;8.05;72.79
45888;BME280;31595;51.418;7.572;2023-02-11T05:45:48;101958.72;;;7.92;73.02
45888;BME280;31595;51.418;7.572;2023-02-11T05:48:18;101956.88;;;7.98;72.09
45888;BME280;31595;51.418;7.572;2023-02-11T05:50:47;101961.25;;;7.94;72.12
45888;BME280;31595;51.418;7.572;2023-02-11T05:53:15;101958.03;;;8.02;73.22
45888;BME280;31595;51.418;7.572;2023-02-11T05:55:42;101960.22;;;8.00;73.32
45888;BME280;31595;51.418;7.572;2023-02-11T05:58:10;101955.50;;;8.01;72.32
45888;BME280;31595;51.418;7.572;2023-02-11T06:00:37;101960.84;;;8.07;72.17
45888;BME280;31595;51.418;7.572;2023-02-11T06:03:04;101950.56;;;8.08;71.57
45888;BME280;31595;51.418;7.572;2023-02-11T06:05:33;101956.06;;;8.03;71.38
45888;BME280;31595;51.418;7.572;2023-02-11T06:08:01;101959.69;;;8.03;71.09
45888;BME280;31595;51.418;7.572;2023-02-11T06:10:29;101964.41;;;8.03;71.84
45888;BME280;31595;51.418;7.572;2023-02-11T06:12:56;101951.09;;;8.05;72.57
45888;BME280;31595;51.418;7.572;2023-02-11T06:15:23;101966.06;;;8.04;71.51
45888;BME280;31595;51.418;7.572;2023-02-11T06:17:51;101957.28;;;8.12;72.03
45888;BME280;31595;51.418;7.572;2023-02-11T06:20:18;101964.81;;;8.17;71.55
45888;BME280;31595;51.418;7.572;2023-02-11T06:22:47;101953.66;;;8.11;70.90
45888;BME280;31595;51.418;7.572;2023-02-11T06:25:16;101954.47;;;8.07;71.43
45888;BME280;31595;51.418;7.572;2023-02-11T06:27:43;101951.09;;;8.05;70.70
45888;BME280;31595;51.418;7.572;2023-02-11T06:30:12;101949.41;;;8.04;71.37
45888;BME280;31595;51.418;7.572;2023-02-11T06:32:40;101953.38;;;7.86;71.01
45888;BME280;31595;51.418;7.572;2023-02-11T06:35:07;101941.28;;;7.97;70.79
45888;BME280;31595;51.418;7.572;2023-02-11T06:37:34;101954.09;;;7.98;72.10
45888;BME280;31595;51.418;7.572;2023-02-11T06:40:02;101944.72;;;8.04;71.86
45888;BME280;31595;51.418;7.572;2023-02-11T06:42:31;101960.84;;;8.07;71.87
45888;BME280;31595;51.418;7.572;2023-02-11T06:44:59;101955.31;;;8.12;70.44
45888;BME280;31595;51.418;7.572;2023-02-11T06:47:26;101952.25;;;8.09;71.07
45888;BME280;31595;51.418;7.572;2023-02-11T06:49:53;101955.28;;;8.07;71.61
45888;BME280;31595;51.418;7.572;2023-02-11T06:52:21;101961.94;;;8.06;70.81
45888;BME280;31595;51.418;7.572;2023-02-11T06:54:48;101963.66;;;8.12;71.50
45888;BME280;31595;51.418;7.572;2023-02-11T06:57:15;101964.41;;;8.03;71.41
45888;BME280;31595;51.418;7.572;2023-02-11T06:59:44;101956.56;;;8.00;70.94
45888;BME280;31595;51.418;7.572;2023-02-11T07:02:11;101964.97;;;8.05;71.41
45888;BME280;31595;51.418;7.572;2023-02-11T07:04:38;101960.22;;;8.00;72.01
45888;BME280;31595;51.418;7.572;2023-02-11T07:07:06;101963.81;;;8.01;70.79
45888;BME280;31595;51.418;7.572;2023-02-11T07:09:33;101969.19;;;8.12;71.44
45888;BME280;31595;51.418;7.572;2023-02-11T07:12:00;101974.75;;;8.12;71.01
45888;BME280;31595;51.418;7.572;2023-02-11T07:14:27;101965.84;;;8.10;71.44
45888;BME280;31595;51.418;7.572;2023-02-11T07:16:56;101961.00;;;8.23;70.32
45888;BME280;31595;51.418;7.572;2023-02-11T07:19:23;101962.81;;;8.12;70.57
45888;BME280;31595;51.418;7.572;2023-02-11T07:21:51;101957.06;;;8.19;70.29
45888;BME280;31595;51.418;7.572;2023-02-11T07:24:18;101956.69;;;8.10;70.52
45888;BME280;31595;51.418;7.572;2023-02-11T07:26:45;101970.66;;;8.15;70.69
45888;BME280;31595;51.418;7.572;2023-02-11T07:29:12;101977.53;;;8.12;71.37
45888;BME280;31595;51.418;7.572;2023-02-11T07:31:40;101976.00;;;8.27;70.98
45888;BME280;31595;51.418;7.572;2023-02-11T07:34:10;101982.16;;;8.29;70.20
45888;BME280;31595;51.418;7.572;2023-02-11T07:36:37;101991.84;;;8.26;70.46
45888;BME280;31595;51.418;7.572;2023-02-11T07:39:04;101980.22;;;8.29;70.40
45888;BME280;31595;51.418;7.572;2023-02-11T07:41:31;101987.69;;;8.29;71.59
45888;BME280;31595;51.418;7.572;2023-02-11T07:44:01;101986.97;;;8.39;71.34
45888;BME280;31595;51.418;7.572;2023-02-11T07:46:28;101983.44;;;8.43;71.47
45888;BME280;31595;51.418;7.572;2023-02-11T07:48:55;101980.72;;;8.48;70.50
45888;BME280;31595;51.418;7.572;2023-02-11T07:51:26;101991.78;;;8.43;69.82
45888;BME280;31595;51.418;7.572;2023-02-11T07:53:55;101989.69;;;8.33;71.03
45888;BME280;31595;51.418;7.572;2023-02-11T07:56:23;101987.81;;;8.39;70.54
45888;BME280;31595;51.418;7.572;2023-02-11T07:58:50;101989.34;;;8.52;69.81
45888;BME280;31595;51.418;7.572;2023-02-11T08:01:20;101991.31;;;8.57;69.94
45888;BME280;31595;51.418;7.572;2023-02-11T08:03:50;101987.91;;;8.44;69.79
45888;BME280;31595;51.418;7.572;2023-02-11T08:06:19;101997.44;;;8.53;70.79
45888;BME280;31595;51.418;7.572;2023-02-11T08:08:48;102001.13;;;8.37;70.23
45888;BME280;31595;51.418;7.572;2023-02-11T08:11:17;102005.75;;;8.53;71.01
45888;BME280;31595;51.418;7.572;2023-02-11T08:13:45;101994.81;;;8.42;70.61
45888;BME280;31595;51.418;7.572;2023-02-11T08:16:17;101996.53;;;8.48;70.50
45888;BME280;31595;51.418;7.572;2023-02-11T08:18:44;101993.34;;;8.39;70.46
45888;BME280;31595;51.418;7.572;2023-02-11T08:21:12;101994.63;;;8.48;71.57
45888;BME280;31595;51.418;7.572;2023-02-11T08:23:41;102014.09;;;8.53;71.85
45888;BME280;31595;51.418;7.572;2023-02-11T08:26:12;102007.91;;;8.46;70.84
45888;BME280;31595;51.418;7.572;2023-02-11T08:28:41;102010.94;;;8.45;71.52
45888;BME280;31595;51.418;7.572;2023-02-11T08:31:11;102015.34;;;8.41;71.35
45888;BME280;31595;51.418;7.572;2023-02-11T08:33:38;102018.97;;;8.41;72.27
45888;BME280;31595;51.418;7.572;2023-02-11T08:36:07;102018.59;;;8.38;72.61
45888;BME280;31595;51.418;7.572;2023-02-11T08:38:35;102031.16;;;8.40;72.66
45888;BME280;31595;51.418;7.572;2023-02-11T08:41:03;102031.16;;;8.40;71.32
45888;BME280;31595;51.418;7.572;2023-02-11T08:43:32;102024.94;;;8.33;71.59
45888;BME280;31595;51.418;7.572;2023-02-11T08:45:59;102028.97;;;8.42;71.56
45888;BME280;31595;51.418;7.572;2023-02-11T08:48:27;102033.75;;;8.47;73.14
45888;BME280;31595;51.418;7.572;2023-02-11T08:50:55;102042.91;;;8.47;71.74
45888;BME280;31595;51.418;7.572;2023-02-11T08:53:22;102049.00;;;8.44;72.45
45888;BME280;31595;51.418;7.572;2023-02-11T08:55:50;102045.03;;;8.40;72.39
45888;BME280;31595;51.418;7.572;2023-02-11T08:58:19;102047.41;;;8.53;71.95
45888;BME280;31595;51.418;7.572;2023-02-11T09:00:48;102054.13;;;8.58;71.32
45888;BME280;31595;51.418;7.572;2023-02-11T09:03:16;102048.03;;;8.61;71.56
45888;BME280;31595;51.418;7.572;2023-02-11T09:05:44;102052.84;;;8.70;71.68
45888;BME280;31595;51.418;7.572;2023-02-11T09:08:12;102054.81;;;8.70;71.95
45888;BME280;31595;51.418;7.572;2023-02-11T09:10:40;102051.00;;;8.81;70.99
45888;BME280;31595;51.418;7.572;2023-02-11T09:13:07;102066.88;;;8.86;70.56
45888;BME280;31595;51.418;7.572;2023-02-11T09:15:35;102066.69;;;8.92;72.04
45888;BME280;31595;51.418;7.572;2023-02-11T09:18:04;102062.56;;;9.00;71.85
45888;BME280;31595;51.418;7.572;2023-02-11T09:20:32;102065.59;;;8.99;71.31
45888;BME280;31595;51.418;7.572;2023-02-11T09:22:59;102064.78;;;8.98;71.50
45888;BME280;31595;51.418;7.572;2023-02-11T09:25:26;102063.13;;;8.97;70.61
45888;BME280;31595;51.418;7.572;2023-02-11T09:27:54;102061.41;;;8.96;69.95
45888;BME280;31595;51.418;7.572;2023-02-11T09:30:21;102061.56;;;8.79;70.54
45888;BME280;31595;51.418;7.572;2023-02-11T09:32:48;102060.97;;;8.77;71.29
45888;BME280;31595;51.418;7.572;2023-02-11T09:35:17;102069.53;;;8.70;71.00
45888;BME280;31595;51.418;7.572;2023-02-11T09:37:44;102067.16;;;8.84;72.44
45888;BME280;31595;51.418;7.572;2023-02-11T09:40:13;102068.16;;;8.73;72.57
45888;BME280;31595;51.418;7.572;2023-02-11T09:42:45;102067.38;;;9.10;71.70
45888;BME280;31595;51.418;7.572;2023-02-11T09:45:17;102070.19;;;9.15;70.78
45888;BME280;31595;51.418;7.572;2023-02-11T09:47:48;102071.44;;;9.29;70.21
45888;BME280;31595;51.418;7.572;2023-02-11T09:50:25;102076.16;;;9.29;71.03
45888;BME280;31595;51.418;7.572;2023-02-11T09:52:57;102078.22;;;9.44;69.39
45888;BME280;31595;51.418;7.572;2023-02-11T09:55:28;102076.53;;;9.43;69.71
45888;BME280;31595;51.418;7.572;2023-02-11T09:57:56;102081.41;;;9.25;70.04
45888;BME280;31595;51.418;7.572;2023-02-11T10:00:27;102083.78;;;9.44;70.42
45888;BME280;31595;51.418;7.572;2023-02-11T10:06:15;102087.06;;;9.41;68.91
45888;BME280;31595;51.418;7.572;2023-02-11T10:08:53;102084.53;;;9.34;70.29
45888;BME280;31595;51.418;7.572;2023-02-11T10:11:30;102084.09;;;9.47;69.19
45888;BME280;31595;51.418;7.572;2023-02-11T10:14:07;102093.41;;;9.31;69.52
45888;BME280;31595;51.418;7.572;2023-02-11T10:16:46;102100.84;;;9.58;69.32
45888;BME280;31595;51.418;7.572;2023-02-11T10:19:35;102102.59;;;9.69;70.15
45888;BME280;31595;51.418;7.572;2023-02-11T10:22:14;102101.75;;;9.68;69.33
45888;BME280;31595;51.418;7.572;2023-02-11T10:24:50;102098.41;;;9.71;69.69
45888;BME280;31595;51.418;7.572;2023-02-11T10:27:20;102108.38;;;9.62;70.06
45888;BME280;31595;51.418;7.572;2023-02-11T10:29:50;102103.06;;;9.55;69.25
45888;BME280;31595;51.418;7.572;2023-02-11T10:32:28;102102.78;;;9.57;70.06
45888;BME280;31595;51.418;7.572;2023-02-11T10:35:01;102105.56;;;9.57;68.49
45888;BME280;31595;51.418;7.572;2023-02-11T10:37:30;102118.13;;;9.60;69.72
45888;BME280;31595;51.418;7.572;2023-02-11T10:39:57;102106.19;;;9.64;69.53
45888;BME280;31595;51.418;7.572;2023-02-11T10:42:25;102110.13;;;9.73;69.76
45888;BME280;31595;51.418;7.572;2023-02-11T10:44:58;102108.78;;;9.81;69.22
45888;BME280;31595;51.418;7.572;2023-02-11T10:47:30;102115.16;;;9.77;68.98
45888;BME280;31595;51.418;7.572;2023-02-11T10:50:17;102111.31;;;9.88;69.43
45888;BME280;31595;51.418;7.572;2023-02-11T10:52:49;102108.03;;;9.96;69.10
45888;BME280;31595;51.418;7.572;2023-02-11T10:55:18;102111.00;;;9.84;68.07
45888;BME280;31595;51.418;7.572;2023-02-11T10:57:53;102109.88;;;9.80;68.13
45888;BME280;31595;51.418;7.572;2023-02-11T11:00:37;102111.75;;;9.69;68.24
45888;BME280;31595;51.418;7.572;2023-02-11T11:03:14;102110.16;;;9.79;68.85
45888;BME280;31595;51.418;7.572;2023-02-11T11:05:47;102116.31;;;9.81;68.93
45888;BME280;31595;51.418;7.572;2023-02-11T11:08:18;102109.03;;;9.80;69.05
45888;BME280;31595;51.418;7.572;2023-02-11T11:10:46;102108.59;;;9.98;68.71
45888;BME280;31595;51.418;7.572;2023-02-11T11:13:26;102106.09;;;9.96;69.08
45888;BME280;31595;51.418;7.572;2023-02-11T11:16:15;102105.81;;;9.98;67.92
45888;BME280;31595;51.418;7.572;2023-02-11T11:18:44;102115.88;;;10.04;67.95
45888;BME280;31595;51.418;7.572;2023-02-11T11:21:14;102113.63;;;10.01;67.86
45888;BME280;31595;51.418;7.572;2023-02-11T11:23:49;102124.84;;;10.16;67.36
45888;BME280;31595;51.418;7.572;2023-02-11T11:26:17;102119.88;;;10.29;67.73
45888;BME280;31595;51.418;7.572;2023-02-11T11:28:54;102114.09;;;10.41;67.60
45888;BME280;31595;51.418;7.572;2023-02-11T11:31:25;102116.03;;;10.30;67.63
45888;BME280;31595;51.418;7.572;2023-02-11T11:33:56;102119.38;;;10.37;66.69
45888;BME280;31595;51.418;7.572;2023-02-11T11:36:32;102120.47;;;10.31;66.59
45888;BME280;31595;51.418;7.572;2023-02-11T11:39:16;102126.56;;;10.28;67.63
45888;BME280;31595;51.418;7.572;2023-02-11T11:41:51;102113.75;;;10.27;66.89
45888;BME280;31595;51.418;7.572;2023-02-11T11:44:30;102119.09;;;10.33;67.52
45888;BME280;31595;51.418;7.572;2023-02-11T11:47:26;102129.94;;;10.35;67.24
45888;BME280;31595;51.418;7.572;2023-02-11T11:50:18;102113.16;;;10.20;66.84
45888;BME280;31595;51.418;7.572;2023-02-11T11:52:59;102119.81;;;10.13;68.79
45888;BME280;31595;51.418;7.572;2023-02-11T11:55:35;102128.22;;;10.29;68.51
45888;BME280;31595;51.418;7.572;2023-02-11T11:58:09;102122.66;;;10.29;67.17
45888;BME280;31595;51.418;7.572;2023-02-11T12:00:47;102117.69;;;10.31;67.85
45888;BME280;31595;51.418;7.572;2023-02-11T12:03:50;102114.84;;;10.26;67.91
45888;BME280;31595;51.418;7.572;2023-02-11T12:06:33;102112.44;;;10.40;67.68
45888;BME280;31595;51.418;7.572;2023-02-11T12:09:11;102107.09;;;10.33;67.44
45888;BME280;31595;51.418;7.572;2023-02-11T12:11:55;102109.38;;;10.41;67.63
45888;BME280;31595;51.418;7.572;2023-02-11T12:14:35;102105.66;;;10.25;67.88
45888;BME280;31595;51.418;7.572;2023-02-11T12:17:15;102099.31;;;10.35;66.33
45888;BME280;31595;51.418;7.572;2023-02-11T12:20:15;102110.50;;;10.40;67.90
45888;BME280;31595;51.418;7.572;2023-02-11T12:22:55;102104.09;;;10.45;67.12
45888;BME280;31595;51.418;7.572;2023-02-11T12:25:28;102103.16;;;10.24;67.63
45888;BME280;31595;51.418;7.572;2023-02-11T12:28:09;102096.53;;;10.30;67.28
45888;BME280;31595;51.418;7.572;2023-02-11T12:31:03;102097.66;;;10.34;67.35
45888;BME280;31595;51.418;7.572;2023-02-11T12:33:43;102086.50;;;10.39;67.09
45888;BME280;31595;51.418;7.572;2023-02-11T12:36:25;102085.91;;;10.27;67.68
45888;BME280;31595;51.418;7.572;2023-02-11T12:39:04;102091.53;;;10.37;66.80
45888;BME280;31595;51.418;7.572;2023-02-11T12:41:49;102094.59;;;10.41;67.29
45888;BME280;31595;51.418;7.572;2023-02-11T12:45:04;102103.25;;;10.49;67.63
45888;BME280;31595;51.418;7.572;2023-02-11T12:47:41;102103.88;;;10.56;67.60
45888;BME280;31595;51.418;7.572;2023-02-11T12:50:17;102102.75;;;10.68;66.92
45888;BME280;31595;51.418;7.572;2023-02-11T12:53:03;102098.88;;;10.69;67.03
45888;BME280;31595;51.418;7.572;2023-02-11T12:55:35;102103.59;;;10.63;66.86
45888;BME280;31595;51.418;7.572;2023-02-11T12:58:11;102099.16;;;10.67;66.94
45888;BME280;31595;51.418;7.572;2023-02-11T13:00:46;102109.97;;;10.53;66.73
45888;BME280;31595;51.418;7.572;2023-02-11T13:03:22;102116.13;;;10.66;67.20
45888;BME280;31595;51.418;7.572;2023-02-11T13:05:53;102107.22;;;10.64;66.42
45888;BME280;31595;51.418;7.572;2023-02-11T13:08:26;102105.25;;;10.59;66.92
45888;BME280;31595;51.418;7.572;2023-02-11T13:10:57;102098.56;;;10.50;67.09
45888;BME280;31595;51.418;7.572;2023-02-11T13:13:27;102098.56;;;10.60;66.35
45888;BME280;31595;51.418;7.572;2023-02-11T13:16:02;102093.84;;;10.66;66.73
45888;BME280;31595;51.418;7.572;2023-02-11T13:18:38;102090.50;;;10.64;66.77
45888;BME280;31595;51.418;7.572;2023-02-11T13:21:24;102093.31;;;10.69;66.45
45888;BME280;31595;51.418;7.572;2023-02-11T13:23:58;102082.44;;;10.72;66.48
45888;BME280;31595;51.418;7.572;2023-02-11T13:26:32;102083.81;;;10.75;66.20